Grete Maersk — OYCY2 — position and weather

sailwx.info

Track history (hours):
 
Tides and Currents Weather Stations Pressure Air Temp Water Temp Dewpoint Dewpoint Depression Visibility Wind Speed Wind Dir Waves Ship Positions

Grete Maersk

Last reported at 2015-Apr-28 21:05 UTC. Time now 2015-May-07 05:37 UTC.
Position N 02°04' E 102°06'.
Warning: this ship's position is 8 days out of date.

MMSI: 218824136.

Date/timePositionNaut miles runAvg speedWind from/ knotsBaromVisibWave heightAir tempDewpointWater temp
2015-Apr-28 21:05N 02°04' E 102°06'1222.0
2015-Apr-28 20:33N 01°57' E 102°15'2222.2
2015-Apr-28 19:33N 01°47' E 102°35'76 3.0
2015-Apr-27 18:07N 01°10' E 103°41'915.2
2015-Apr-27 17:30N 01°12' E 103°51'1816.7
2015-Apr-27 16:26N 01°16' E 104°08'  
2015-Apr-24 23:33N 22°18' E 114°06'1111.4
2015-Apr-24 22:33N 22°22' E 113°54'6 5.7
2015-Apr-24 21:33N 22°28' E 113°53'0 0.1
2015-Apr-24 20:33N 22°28' E 113°53'0 0.0
2015-Apr-24 19:27N 22°28' E 113°53'0 0.0
2015-Apr-24 18:33N 22°28' E 113°53'0 0.0
2015-Apr-24 17:33N 22°28' E 113°53'0 0.0
2015-Apr-24 16:27N 22°28' E 113°53'0 0.0
2015-Apr-24 15:33N 22°28' E 113°53'0 0.0
2015-Apr-24 14:33N 22°28' E 113°53'0 0.0
2015-Apr-24 13:33N 22°28' E 113°53'0 0.0
2015-Apr-24 12:33N 22°28' E 113°53'4 4.0
2015-Apr-24 11:34N 22°24' E 113°54'11 8.3
2015-Apr-24 10:11N 22°20' E 114°05'18 9.6
2015-Apr-24 08:22N 22°09' E 114°20'8 9.6
2015-Apr-24 07:33N 22°13' E 114°27'24 5.8
2015-Apr-24 03:30N 22°34' E 114°16'2 0.2
2015-Apr-23 16:29N 22°34' E 114°19'1514.7
2015-Apr-23 15:27N 22°23' E 114°31'12921.9
2015-Apr-23 09:33N 22°48' E 116°47'2423.9
2015-Apr-23 08:33N 23°03' E 117°08'4623.2
2015-Apr-23 06:33N 23°34' E 117°45'2423.4
2015-Apr-23 05:33N 23°47' E 118°06'2323.2
2015-Apr-23 04:33N 24°02' E 118°26'2823.1
2015-Apr-23 03:21N 24°19' E 118°50'7222.6
2015-Apr-23 00:09N 25°05' E 119°51'19622.0
2015-Apr-22 15:15N 27°45' E 121°57'8622.8
2015-Apr-22 11:28N 29°01' E 122°43'2123.5
2015-Apr-22 10:34N 29°21' E 122°54'2323.3
2015-Apr-22 09:33N 29°42' E 123°03'2423.6
2015-Apr-22 08:33N 30°05' E 123°11'2921.8
2015-Apr-22 07:14N 30°26' E 122°48'2220.9
2015-Apr-22 06:12N 30°32' E 122°24'1012.8
2015-Apr-22 05:24N 30°33' E 122°12'910.9
2015-Apr-22 04:33N 30°38' E 122°03'0 0.1
2015-Apr-22 03:29N 30°38' E 122°03'0 0.0
2015-Apr-22 01:30N 30°38' E 122°03'0 0.0
2015-Apr-22 00:18N 30°38' E 122°03'0 0.0
2015-Apr-21 23:06N 30°38' E 122°03'0 0.0
2015-Apr-21 22:32N 30°38' E 122°03'0 0.0
2015-Apr-21 21:29N 30°38' E 122°03'0 0.0
2015-Apr-21 20:30N 30°38' E 122°03'0 0.0
2015-Apr-21 19:24N 30°38' E 122°03'0 0.0
2015-Apr-21 18:18N 30°38' E 122°03'0 0.0
2015-Apr-21 17:27N 30°38' E 122°03'0 0.0
2015-Apr-21 16:33N 30°38' E 122°03'0 0.0
2015-Apr-21 15:14N 30°38' E 122°03'0 0.0
2015-Apr-21 14:29N 30°38' E 122°03'0 0.0
2015-Apr-21 13:26N 30°38' E 122°03'0 0.1
2015-Apr-21 12:33N 30°38' E 122°03'3 2.6
2015-Apr-21 11:33N 30°36' E 122°05'10 9.8
2015-Apr-21 10:33N 30°33' E 122°16'7 6.5
2015-Apr-21 09:31N 30°32' E 122°23'1111.8
2015-Apr-21 08:32N 30°29' E 122°36'3 0.3
2015-Apr-20 22:15N 30°28' E 122°39'0 0.1
2015-Apr-20 21:33N 30°28' E 122°39'0 0.0
2015-Apr-20 20:27N 30°28' E 122°39'0 0.1
2015-Apr-20 19:15N 30°28' E 122°39'0 0.1
2015-Apr-20 17:21N 30°27' E 122°39'38 5.4
2015-Apr-20 10:22N 29°50' E 122°43'8 9.1
2015-Apr-20 09:31N 29°44' E 122°37'9 9.6
2015-Apr-20 08:33N 29°42' E 122°27'1414.1
2015-Apr-20 07:33N 29°49' E 122°13'1010.0
2015-Apr-20 06:33N 29°54' E 122°03'0 0.1
2015-Apr-20 04:22N 29°53' E 122°02'0 0.0
2015-Apr-20 02:29N 29°53' E 122°03'0 0.1
2015-Apr-20 01:29N 29°53' E 122°02'0 0.0
2015-Apr-19 23:29N 29°53' E 122°02'0 0.0
2015-Apr-19 22:28N 29°53' E 122°02'0 0.0
2015-Apr-19 20:29N 29°53' E 122°03'0 0.0
2015-Apr-19 19:16N 29°53' E 122°02'0 0.0
2015-Apr-19 18:10N 29°53' E 122°02'0 0.0
2015-Apr-19 17:28N 29°53' E 122°02'0 0.0
2015-Apr-19 16:28N 29°53' E 122°02'0 0.0
2015-Apr-19 15:28N 29°53' E 122°02'0 0.0
2015-Apr-19 14:28N 29°53' E 122°02'0 0.0
2015-Apr-19 13:17N 29°53' E 122°02'0 0.0
2015-Apr-19 12:29N 29°53' E 122°02'0 0.0
2015-Apr-19 11:16N 29°53' E 122°02'0 0.0
2015-Apr-19 10:05N 29°53' E 122°02'0 0.1
2015-Apr-19 09:22N 29°53' E 122°03'0 0.0
2015-Apr-19 08:16N 29°53' E 122°02'0 0.1
2015-Apr-19 07:33N 29°54' E 122°03'7 7.3
2015-Apr-19 06:33N 29°55' E 122°11'1 1.2
2015-Apr-19 05:33N 29°54' E 122°12'3 2.5
2015-Apr-19 04:33N 29°52' E 122°12'1010.5
2015-Apr-19 03:33N 29°45' E 122°21'3 0.7
2015-Apr-18 23:12N 29°45' E 122°24'0 0.1
2015-Apr-18 21:30N 29°45' E 122°25'  
Track history (hours):
 
Tides and Currents Weather Stations Pressure Air Temp Water Temp Dewpoint Dewpoint Depression Visibility Wind Speed Wind Dir Waves Ship Positions

Grete Maersk

Last reported at 2015-Apr-28 21:05 UTC. Time now 2015-May-07 05:37 UTC.
Position N 02°04' E 102°06'.
Warning: this ship's position is 8 days out of date.

MMSI: 218824136.

Date/timePositionNaut miles runAvg speedWind from/ knotsBaromVisibWave heightAir tempDewpointWater temp
2015-Apr-28 21:05N 02°04' E 102°06'1222.0
2015-Apr-28 20:33N 01°57' E 102°15'2222.2
2015-Apr-28 19:33N 01°47' E 102°35'76 3.0
2015-Apr-27 18:07N 01°10' E 103°41'915.2
2015-Apr-27 17:30N 01°12' E 103°51'1816.7
2015-Apr-27 16:26N 01°16' E 104°08'  
2015-Apr-24 23:33N 22°18' E 114°06'1111.4
2015-Apr-24 22:33N 22°22' E 113°54'6 5.7
2015-Apr-24 21:33N 22°28' E 113°53'0 0.1
2015-Apr-24 20:33N 22°28' E 113°53'0 0.0
2015-Apr-24 19:27N 22°28' E 113°53'0 0.0
2015-Apr-24 18:33N 22°28' E 113°53'0 0.0
2015-Apr-24 17:33N 22°28' E 113°53'0 0.0
2015-Apr-24 16:27N 22°28' E 113°53'0 0.0
2015-Apr-24 15:33N 22°28' E 113°53'0 0.0
2015-Apr-24 14:33N 22°28' E 113°53'0 0.0
2015-Apr-24 13:33N 22°28' E 113°53'0 0.0
2015-Apr-24 12:33N 22°28' E 113°53'4 4.0
2015-Apr-24 11:34N 22°24' E 113°54'11 8.3
2015-Apr-24 10:11N 22°20' E 114°05'18 9.6
2015-Apr-24 08:22N 22°09' E 114°20'8 9.6
2015-Apr-24 07:33N 22°13' E 114°27'24 5.8
2015-Apr-24 03:30N 22°34' E 114°16'2 0.2
2015-Apr-23 16:29N 22°34' E 114°19'1514.7
2015-Apr-23 15:27N 22°23' E 114°31'12921.9
2015-Apr-23 09:33N 22°48' E 116°47'2423.9
2015-Apr-23 08:33N 23°03' E 117°08'4623.2
2015-Apr-23 06:33N 23°34' E 117°45'2423.4
2015-Apr-23 05:33N 23°47' E 118°06'2323.2
2015-Apr-23 04:33N 24°02' E 118°26'2823.1
2015-Apr-23 03:21N 24°19' E 118°50'7222.6
2015-Apr-23 00:09N 25°05' E 119°51'19622.0
2015-Apr-22 15:15N 27°45' E 121°57'8622.8
2015-Apr-22 11:28N 29°01' E 122°43'2123.5
2015-Apr-22 10:34N 29°21' E 122°54'2323.3
2015-Apr-22 09:33N 29°42' E 123°03'2423.6
2015-Apr-22 08:33N 30°05' E 123°11'2921.8
2015-Apr-22 07:14N 30°26' E 122°48'2220.9
2015-Apr-22 06:12N 30°32' E 122°24'1012.8
2015-Apr-22 05:24N 30°33' E 122°12'910.9
2015-Apr-22 04:33N 30°38' E 122°03'0 0.1
2015-Apr-22 03:29N 30°38' E 122°03'0 0.0
2015-Apr-22 01:30N 30°38' E 122°03'0 0.0
2015-Apr-22 00:18N 30°38' E 122°03'0 0.0
2015-Apr-21 23:06N 30°38' E 122°03'0 0.0
2015-Apr-21 22:32N 30°38' E 122°03'0 0.0
2015-Apr-21 21:29N 30°38' E 122°03'0 0.0
2015-Apr-21 20:30N 30°38' E 122°03'0 0.0
2015-Apr-21 19:24N 30°38' E 122°03'0 0.0
2015-Apr-21 18:18N 30°38' E 122°03'0 0.0
2015-Apr-21 17:27N 30°38' E 122°03'0 0.0
2015-Apr-21 16:33N 30°38' E 122°03'0 0.0
2015-Apr-21 15:14N 30°38' E 122°03'0 0.0
2015-Apr-21 14:29N 30°38' E 122°03'0 0.0
2015-Apr-21 13:26N 30°38' E 122°03'0 0.1
2015-Apr-21 12:33N 30°38' E 122°03'3 2.6
2015-Apr-21 11:33N 30°36' E 122°05'10 9.8
2015-Apr-21 10:33N 30°33' E 122°16'7 6.5
2015-Apr-21 09:31N 30°32' E 122°23'1111.8
2015-Apr-21 08:32N 30°29' E 122°36'3 0.3
2015-Apr-20 22:15N 30°28' E 122°39'0 0.1
2015-Apr-20 21:33N 30°28' E 122°39'0 0.0
2015-Apr-20 20:27N 30°28' E 122°39'0 0.1
2015-Apr-20 19:15N 30°28' E 122°39'0 0.1
2015-Apr-20 17:21N 30°27' E 122°39'38 5.4
2015-Apr-20 10:22N 29°50' E 122°43'8 9.1
2015-Apr-20 09:31N 29°44' E 122°37'9 9.6
2015-Apr-20 08:33N 29°42' E 122°27'1414.1
2015-Apr-20 07:33N 29°49' E 122°13'1010.0
2015-Apr-20 06:33N 29°54' E 122°03'0 0.1
2015-Apr-20 04:22N 29°53' E 122°02'0 0.0
2015-Apr-20 02:29N 29°53' E 122°03'0 0.1
2015-Apr-20 01:29N 29°53' E 122°02'0 0.0
2015-Apr-19 23:29N 29°53' E 122°02'0 0.0
2015-Apr-19 22:28N 29°53' E 122°02'0 0.0
2015-Apr-19 20:29N 29°53' E 122°03'0 0.0
2015-Apr-19 19:16N 29°53' E 122°02'0 0.0
2015-Apr-19 18:10N 29°53' E 122°02'0 0.0
2015-Apr-19 17:28N 29°53' E 122°02'0 0.0
2015-Apr-19 16:28N 29°53' E 122°02'0 0.0
2015-Apr-19 15:28N 29°53' E 122°02'0 0.0
2015-Apr-19 14:28N 29°53' E 122°02'0 0.0
2015-Apr-19 13:17N 29°53' E 122°02'0 0.0
2015-Apr-19 12:29N 29°53' E 122°02'0 0.0
2015-Apr-19 11:16N 29°53' E 122°02'0 0.0
2015-Apr-19 10:05N 29°53' E 122°02'0 0.1
2015-Apr-19 09:22N 29°53' E 122°03'0 0.0
2015-Apr-19 08:16N 29°53' E 122°02'0 0.1
2015-Apr-19 07:33N 29°54' E 122°03'7 7.3
2015-Apr-19 06:33N 29°55' E 122°11'1 1.2
2015-Apr-19 05:33N 29°54' E 122°12'3 2.5
2015-Apr-19 04:33N 29°52' E 122°12'1010.5
2015-Apr-19 03:33N 29°45' E 122°21'3 0.7
2015-Apr-18 23:12N 29°45' E 122°24'0 0.1
2015-Apr-18 21:30N 29°45' E 122°25'  

Dump ship's entire track history